Time;durP1;ratioP1;P1;durP2;ratioP2;P2;SDS_P1;SDS_P2;PMS_P1;PMS_P2;Temp;Humidity;BMP_temperature;BMP_pressure;BME280_temperature;BME280_humidity;BME280_pressure;Samples;Min_cycle;Max_cycle;Signal;HPM_P1;HPM_P2
2022/03/11 00:01:33;;;;;;;20.60;12.23;;;-4.10;99.90;-5.50;102381;;;;551559;254;24175;-81
2022/03/11 00:04:01;;;;;;;21.57;11.67;;;-4.20;99.90;-5.60;102393;;;;551792;256;24204;-81
2022/03/11 00:06:29;;;;;;;24.23;13.65;;;-4.30;99.90;-5.50;102389;;;;544351;256;35714;-79
2022/03/11 00:08:57;;;;;;;20.87;12.03;;;-4.20;99.90;-5.50;102398;;;;551872;256;24159;-79
2022/03/11 00:11:26;;;;;;;22.20;13.83;;;-4.20;99.90;-5.50;102390;;;;552012;256;24137;-81
2022/03/11 00:13:54;;;;;;;22.90;13.17;;;-4.20;99.90;-5.40;102385;;;;551646;256;24172;-79
2022/03/11 00:16:23;;;;;;;22.43;12.07;;;-4.20;99.90;-5.40;102391;;;;551557;256;24172;-80
2022/03/11 00:18:52;;;;;;;27.13;13.97;;;-4.10;99.90;-5.40;102395;;;;549273;256;24154;-82
2022/03/11 00:21:22;;;;;;;25.33;13.67;;;-4.10;99.90;-5.40;102398;;;;551505;256;24181;-81
2022/03/11 00:23:47;;;;;;;20.67;12.20;;;-4.10;99.90;-5.50;102386;;;;551234;256;24156;-81
2022/03/11 00:26:16;;;;;;;23.63;12.07;;;-4.20;99.90;-5.50;102396;;;;551158;256;24210;-80
2022/03/11 00:28:44;;;;;;;20.50;12.60;;;-4.20;99.90;-5.60;102378;;;;551597;256;24148;-81
2022/03/11 00:31:12;;;;;;;22.83;11.53;;;-4.20;99.90;-5.60;102383;;;;551748;256;24142;-81
2022/03/11 00:33:40;;;;;;;24.80;12.73;;;-4.30;99.90;-5.60;102386;;;;552690;256;24120;-81
2022/03/11 00:36:08;;;;;;;20.00;11.90;;;-4.30;99.90;-5.60;102389;;;;561353;256;24159;-81
2022/03/11 00:38:36;;;;;;;25.13;13.43;;;-4.30;99.90;-5.70;102370;;;;552931;256;24107;-82
2022/03/11 00:41:04;;;;;;;21.83;12.60;;;-4.30;99.90;-5.70;102387;;;;552875;256;24192;-81
2022/03/11 00:43:32;;;;;;;22.83;13.80;;;-4.40;99.90;-5.70;102396;;;;560795;251;24206;-80
2022/03/11 00:46:00;;;;;;;24.40;13.70;;;-4.40;99.90;-5.70;102383;;;;552483;256;24225;-80
2022/03/11 00:48:28;;;;;;;25.30;13.63;;;-4.40;99.90;-5.70;102390;;;;552568;256;24153;-80
2022/03/11 00:50:56;;;;;;;26.40;14.70;;;-4.40;99.90;-5.70;102394;;;;552429;256;24169;-80
2022/03/11 00:53:24;;;;;;;28.43;14.83;;;-4.40;99.90;-5.70;102389;;;;552117;256;24234;-80
2022/03/11 00:55:51;;;;;;;22.03;13.50;;;-4.40;99.90;-5.70;102388;;;;552212;256;24209;-80
2022/03/11 00:58:19;;;;;;;24.83;14.87;;;-4.40;99.90;-5.70;102375;;;;551713;256;24154;-79
2022/03/11 01:00:51;;;;;;;25.07;15.07;;;-4.40;99.90;-5.70;102378;;;;550834;256;24222;-80
2022/03/11 01:03:15;;;;;;;26.07;15.73;;;-4.40;99.90;-5.70;102389;;;;550485;256;24152;-80
2022/03/11 01:05:43;;;;;;;26.07;15.43;;;-4.40;99.90;-5.70;102367;;;;550939;256;24181;-80
2022/03/11 01:08:11;;;;;;;25.43;15.33;;;-4.40;99.90;-5.80;102367;;;;551465;256;24170;-81
2022/03/11 01:10:40;;;;;;;29.50;16.30;;;-4.50;99.90;-5.80;102368;;;;551788;256;24153;-82
2022/03/11 01:13:10;;;;;;;27.83;14.77;;;-4.50;99.90;-5.90;102378;;;;551082;256;24158;-80
2022/03/11 01:15:35;;;;;;;27.00;15.40;;;-4.60;99.90;-5.90;102376;;;;548712;256;24161;-81
2022/03/11 01:18:03;;;;;;;26.43;15.40;;;-4.60;99.90;-5.90;102365;;;;551763;256;24173;-80
2022/03/11 01:20:31;;;;;;;28.23;15.57;;;-4.60;99.90;-5.90;102369;;;;551603;256;24158;-80
2022/03/11 01:22:59;;;;;;;34.17;17.00;;;-4.60;99.90;-5.90;102368;;;;551546;256;24162;-81
2022/03/11 01:25:27;;;;;;;24.57;16.53;;;-4.60;99.90;-5.90;102360;;;;551424;254;24185;-79
2022/03/11 01:27:55;;;;;;;30.33;16.87;;;-4.60;99.90;-5.90;102361;;;;551894;256;24183;-80
2022/03/11 01:30:23;;;;;;;25.43;15.60;;;-4.60;99.90;-5.90;102368;;;;552126;256;24212;-80
2022/03/11 01:32:51;;;;;;;33.13;16.60;;;-4.60;99.90;-5.90;102350;;;;551434;256;24150;-80
2022/03/11 01:35:19;;;;;;;32.33;17.97;;;-4.60;99.90;-5.90;102358;;;;551277;256;24180;-80
2022/03/11 01:37:51;;;;;;;28.47;17.27;;;-4.60;99.90;-5.90;102355;;;;551209;256;24162;-80
2022/03/11 01:40:15;;;;;;;33.43;18.13;;;-4.60;99.90;-6.00;102341;;;;550632;256;24209;-82
2022/03/11 01:42:43;;;;;;;31.73;17.17;;;-4.60;99.90;-6.00;102349;;;;550788;256;24257;-81
2022/03/11 01:45:11;;;;;;;29.70;16.27;;;-4.60;99.90;-6.00;102356;;;;551355;256;24154;-81
2022/03/11 01:47:38;;;;;;;28.70;16.47;;;-4.70;99.90;-6.00;102352;;;;551920;256;24177;-81
2022/03/11 01:50:10;;;;;;;27.67;15.53;;;-4.70;99.90;-6.00;102346;;;;551411;256;24174;-82
2022/03/11 01:52:34;;;;;;;31.53;16.13;;;-4.70;99.90;-6.00;102343;;;;551401;256;24167;-82
2022/03/11 01:55:06;;;;;;;27.73;14.47;;;-4.70;99.90;-6.00;102344;;;;548895;256;24185;-81
2022/03/11 01:57:30;;;;;;;27.53;16.27;;;-4.70;99.90;-6.00;102352;;;;558840;254;24146;-83
2022/03/11 01:59:58;;;;;;;27.07;15.30;;;-4.70;99.90;-6.00;102342;;;;551262;256;24156;-82
2022/03/11 02:02:26;;;;;;;28.17;14.90;;;-4.70;99.90;-6.10;102337;;;;559314;256;24170;-82
2022/03/11 02:04:54;;;;;;;22.03;14.80;;;-4.70;99.90;-6.10;102339;;;;551239;256;24193;-82
2022/03/11 02:07:22;;;;;;;30.30;16.43;;;-4.70;99.90;-6.10;102350;;;;551256;256;24241;-81
2022/03/11 02:09:50;;;;;;;26.13;14.43;;;-4.80;99.90;-6.00;102354;;;;551420;256;24180;-81
2022/03/11 02:12:34;;;;;;;26.73;15.20;;;-4.70;99.90;-6.00;102351;;;;552235;256;24213;-81
2022/03/11 02:15:04;;;;;;;28.13;15.13;;;-4.70;99.90;-6.00;102355;;;;551808;256;24200;-80
2022/03/11 02:17:31;;;;;;;26.03;15.87;;;-4.70;99.90;-6.00;102345;;;;550814;256;24168;-81
2022/03/11 02:19:59;;;;;;;25.50;14.40;;;-4.70;99.90;-5.90;102347;;;;548335;256;24161;-79
2022/03/11 02:22:31;;;;;;;28.53;15.73;;;-4.70;99.90;-6.00;102347;;;;558681;256;24153;-79
2022/03/11 02:24:58;;;;;;;26.90;16.10;;;-4.70;99.90;-5.90;102354;;;;550510;256;24146;-79
2022/03/11 02:27:26;;;;;;;25.57;14.40;;;-4.70;99.90;-6.00;102341;;;;558486;256;24157;-80
2022/03/11 02:29:51;;;;;;;28.33;13.20;;;-4.70;99.90;-6.00;102347;;;;550505;256;24168;-80
2022/03/11 02:32:19;;;;;;;24.27;14.07;;;-4.60;99.90;-5.90;102356;;;;550961;256;24199;-79
2022/03/11 02:34:47;;;;;;;25.03;15.33;;;-4.70;99.90;-5.90;102345;;;;550872;256;24158;-80
2022/03/11 02:37:15;;;;;;;23.53;14.37;;;-4.70;99.90;-6.00;102344;;;;550785;256;24183;-80
2022/03/11 02:39:42;;;;;;;26.95;15.77;;;-4.70;99.90;-6.00;102340;;;;546161;256;35755;-80
2022/03/11 02:42:10;;;;;;;26.97;14.83;;;-4.70;99.90;-6.00;102343;;;;551171;256;24136;-81
2022/03/11 02:44:41;;;;;;;24.97;14.10;;;-4.70;99.90;-6.00;102337;;;;551540;256;24227;-82
2022/03/11 02:47:06;;;;;;;28.73;14.87;;;-4.70;99.90;-6.00;102343;;;;551176;256;24162;-82
2022/03/11 02:49:35;;;;;;;24.03;13.13;;;-4.80;99.90;-6.00;102345;;;;551284;254;24173;-82
2022/03/11 02:52:03;;;;;;;28.50;14.93;;;-4.80;99.90;-6.00;102353;;;;551562;256;24162;-82
2022/03/11 02:54:31;;;;;;;28.63;14.17;;;-4.80;99.90;-6.10;102361;;;;559344;254;24148;-80
2022/03/11 02:56:59;;;;;;;28.40;14.30;;;-4.80;99.90;-6.20;102352;;;;552017;256;24142;-79
2022/03/11 02:59:27;;;;;;;28.13;14.77;;;-4.80;99.90;-6.20;102351;;;;560477;254;24197;-81
2022/03/11 03:01:55;;;;;;;27.63;14.33;;;-4.90;99.90;-6.20;102354;;;;552015;256;24224;-81
2022/03/11 03:04:23;;;;;;;25.40;14.50;;;-4.90;99.90;-6.20;102356;;;;552029;256;24160;-81
2022/03/11 03:06:52;;;;;;;29.53;16.13;;;-4.90;99.90;-6.30;102345;;;;551758;256;24156;-80
2022/03/11 03:09:19;;;;;;;27.03;14.43;;;-4.90;99.90;-6.30;102347;;;;551675;256;24220;-80
2022/03/11 03:11:47;;;;;;;24.83;14.57;;;-5.00;99.90;-6.30;102346;;;;551427;256;24161;-80
2022/03/11 03:14:15;;;;;;;26.40;14.40;;;-5.00;99.90;-6.40;102344;;;;551762;256;24191;-81
2022/03/11 03:16:43;;;;;;;27.30;16.23;;;-5.00;99.90;-6.40;102337;;;;551192;256;24183;-81
2022/03/11 03:19:11;;;;;;;31.97;15.50;;;-5.10;99.90;-6.40;102339;;;;551459;256;24154;-81
2022/03/11 03:21:39;;;;;;;28.43;15.73;;;-5.10;99.90;-6.40;102335;;;;551516;256;24160;-82
2022/03/11 03:24:10;;;;;;;24.23;14.70;;;-5.10;99.90;-6.50;102337;;;;551590;256;24151;-81
2022/03/11 03:26:35;;;;;;;29.00;15.20;;;-5.10;99.90;-6.50;102343;;;;559218;255;24216;-81
2022/03/11 03:29:04;;;;;;;33.13;14.70;;;-5.20;99.90;-6.50;102343;;;;551496;256;24139;-80
2022/03/11 03:31:33;;;;;;;29.13;16.00;;;-5.20;99.90;-6.50;102337;;;;551601;254;24189;-80
2022/03/11 03:34:01;;;;;;;30.30;17.00;;;-5.20;99.90;-6.50;102342;;;;551354;256;24162;-80
2022/03/11 03:36:28;;;;;;;30.67;17.13;;;-5.20;99.90;-6.60;102335;;;;551478;256;24135;-80
2022/03/11 03:38:59;;;;;;;28.00;16.73;;;-5.20;99.90;-6.60;102346;;;;551989;256;24127;-81
2022/03/11 03:41:24;;;;;;;31.30;16.63;;;-5.20;99.90;-6.50;102355;;;;551924;256;24168;-81
2022/03/11 03:43:52;;;;;;;27.93;17.10;;;-5.20;99.90;-6.50;102349;;;;552209;256;24186;-81
2022/03/11 03:46:20;;;;;;;29.13;17.13;;;-5.20;99.90;-6.50;102356;;;;551975;256;24153;-81
2022/03/11 03:48:48;;;;;;;32.67;17.77;;;-5.20;99.90;-6.40;102357;;;;560190;252;24139;-80
2022/03/11 03:51:16;;;;;;;30.93;16.83;;;-5.20;99.90;-6.50;102360;;;;551133;256;27523;-81
2022/03/11 03:53:44;;;;;;;30.30;16.33;;;-5.20;99.90;-6.50;102355;;;;550895;256;24159;-80
2022/03/11 03:56:12;;;;;;;28.30;16.17;;;-5.20;99.90;-6.50;102365;;;;550955;256;24187;-80
2022/03/11 03:58:40;;;;;;;31.73;16.73;;;-5.20;99.90;-6.50;102351;;;;550710;256;24153;-80
2022/03/11 04:01:10;;;;;;;26.67;17.00;;;-5.20;99.90;-6.50;102348;;;;550624;256;24169;-80
2022/03/11 04:03:36;;;;;;;22.77;13.80;;;-5.20;99.90;-6.50;102351;;;;550434;256;24176;-80
2022/03/11 04:06:04;;;;;;;28.90;15.73;;;-5.20;99.90;-6.50;102353;;;;550677;256;24154;-80
2022/03/11 04:08:36;;;;;;;26.57;16.07;;;-5.20;99.90;-6.50;102353;;;;551627;256;24173;-79
2022/03/11 04:11:02;;;;;;;21.60;13.73;;;-5.10;99.90;-6.50;102353;;;;551091;256;24165;-80
2022/03/11 04:13:30;;;;;;;23.67;14.03;;;-5.20;99.90;-6.50;102361;;;;551799;254;24215;-79
2022/03/11 04:15:59;;;;;;;22.83;14.43;;;-5.20;99.90;-6.50;102364;;;;551624;256;24177;-79
2022/03/11 04:18:28;;;;;;;27.40;14.93;;;-5.20;99.90;-6.50;102361;;;;551923;256;24202;-79
2022/03/11 04:20:56;;;;;;;25.40;13.40;;;-5.20;99.90;-6.50;102369;;;;551893;256;24204;-80
2022/03/11 04:23:24;;;;;;;27.40;15.67;;;-5.20;99.90;-6.60;102357;;;;551689;256;24155;-80
2022/03/11 04:25:51;;;;;;;22.50;14.43;;;-5.30;99.90;-6.70;102357;;;;551492;256;24143;-80
2022/03/11 04:28:20;;;;;;;22.77;14.97;;;-5.30;99.90;-6.70;102358;;;;551272;256;24167;-80
2022/03/11 04:30:47;;;;;;;22.63;13.80;;;-5.40;99.90;-6.80;102356;;;;551853;256;24185;-82
2022/03/11 04:33:16;;;;;;;26.90;15.10;;;-5.50;99.90;-6.90;102347;;;;551718;256;24146;-79
2022/03/11 04:35:44;;;;;;;24.30;14.93;;;-5.50;99.90;-6.90;102345;;;;551692;256;24161;-80
2022/03/11 04:38:12;;;;;;;21.63;13.73;;;-5.50;99.90;-6.90;102350;;;;551784;256;24140;-80
2022/03/11 04:40:40;;;;;;;22.87;13.10;;;-5.60;99.90;-6.90;102346;;;;551885;256;24151;-80
2022/03/11 04:43:10;;;;;;;22.93;13.67;;;-5.60;99.90;-6.90;102346;;;;549804;256;24206;-80
2022/03/11 04:45:36;;;;;;;21.43;12.77;;;-5.60;99.90;-6.90;102356;;;;548361;256;24161;-79
2022/03/11 04:48:08;;;;;;;20.17;11.63;;;-5.60;99.90;-6.90;102346;;;;550479;256;24172;-79
2022/03/11 04:50:34;;;;;;;19.80;13.03;;;-5.60;99.90;-7.00;102340;;;;548668;256;24195;-79
2022/03/11 04:53:03;;;;;;;18.93;11.97;;;-5.60;99.90;-7.00;102356;;;;550474;256;24217;-79
2022/03/11 04:55:31;;;;;;;20.93;12.57;;;-5.70;99.90;-7.00;102352;;;;550551;256;24159;-80
2022/03/11 04:58:00;;;;;;;22.53;12.23;;;-5.70;99.90;-7.00;102348;;;;550553;256;24146;-82
2022/03/11 05:00:29;;;;;;;27.33;12.73;;;-5.70;99.90;-7.00;102343;;;;550710;254;24209;-80
2022/03/11 05:02:58;;;;;;;23.00;14.13;;;-5.70;99.90;-7.00;102331;;;;550811;256;24191;-81
2022/03/11 05:05:28;;;;;;;19.97;12.53;;;-5.70;99.90;-7.00;102329;;;;550695;256;24147;-81
2022/03/11 05:07:52;;;;;;;21.33;11.60;;;-5.70;99.90;-7.00;102333;;;;550596;256;24228;-82
2022/03/11 05:10:20;;;;;;;20.07;12.97;;;-5.70;99.90;-7.00;102329;;;;550996;256;24136;-82
2022/03/11 05:12:48;;;;;;;23.83;12.77;;;-5.70;99.90;-7.10;102326;;;;559471;255;24230;-81
2022/03/11 05:15:16;;;;;;;25.87;16.03;;;-5.70;99.90;-7.00;102329;;;;551331;256;24206;-81
2022/03/11 05:17:44;;;;;;;32.30;18.07;;;-5.70;99.90;-7.00;102319;;;;551147;256;24136;-80
2022/03/11 05:20:12;;;;;;;35.23;19.70;;;-5.70;99.90;-7.00;102321;;;;551649;256;24142;-81
2022/03/11 05:22:42;;;;;;;35.03;20.33;;;-5.70;99.90;-7.00;102324;;;;551644;256;24146;-81
2022/03/11 05:25:08;;;;;;;35.63;19.80;;;-5.70;99.90;-7.00;102309;;;;551233;256;24189;-80
2022/03/11 05:27:39;;;;;;;36.07;19.27;;;-5.70;99.90;-7.00;102317;;;;551268;256;24210;-80
2022/03/11 05:30:08;;;;;;;33.47;17.77;;;-5.60;99.90;-6.90;102319;;;;550929;256;24243;-80
2022/03/11 05:32:45;;;;;;;31.17;17.10;;;-5.70;99.90;-7.00;102314;;;;559180;254;24166;-80
2022/03/11 05:35:13;;;;;;;32.80;18.77;;;-5.60;99.90;-7.00;102325;;;;551441;256;24475;-79
2022/03/11 05:37:44;;;;;;;31.93;17.90;;;-5.60;99.90;-7.00;102328;;;;550972;256;24164;-79
2022/03/11 05:40:12;;;;;;;31.80;16.10;;;-5.60;99.90;-7.00;102323;;;;550586;256;24231;-80
2022/03/11 05:42:37;;;;;;;31.23;16.93;;;-5.60;99.90;-6.90;102325;;;;550839;254;24173;-80
2022/03/11 05:45:08;;;;;;;30.77;16.63;;;-5.60;99.90;-6.90;102335;;;;551263;256;24223;-81
2022/03/11 05:47:33;;;;;;;28.87;16.20;;;-5.50;99.90;-6.80;102343;;;;559362;256;24199;-81
2022/03/11 05:50:00;;;;;;;23.80;14.03;;;-5.50;99.90;-6.70;102340;;;;551706;256;24171;-81
2022/03/11 05:52:30;;;;;;;27.83;13.87;;;-5.40;99.90;-6.60;102344;;;;551910;256;24193;-82
2022/03/11 05:55:00;;;;;;;30.90;14.00;;;-5.30;99.90;-6.50;102353;;;;551642;256;24180;-80
2022/03/11 05:57:26;;;;;;;29.60;14.90;;;-5.20;99.90;-6.50;102345;;;;548815;256;24156;-80
2022/03/11 05:59:53;;;;;;;30.73;12.83;;;-5.20;99.90;-6.40;102343;;;;551464;256;24147;-79
2022/03/11 06:02:21;;;;;;;27.73;13.17;;;-5.10;99.90;-6.40;102354;;;;559328;256;24149;-81
2022/03/11 06:04:49;;;;;;;23.20;14.00;;;-5.10;99.90;-6.30;102346;;;;551676;256;24183;-80
2022/03/11 06:07:17;;;;;;;23.90;12.90;;;-5.00;99.90;-6.20;102350;;;;551799;256;24167;-81
2022/03/11 06:09:46;;;;;;;22.30;12.40;;;-4.90;99.90;-6.10;102362;;;;551220;256;24145;-81
2022/03/11 06:12:13;;;;;;;29.73;12.67;;;-4.80;99.90;-6.00;102364;;;;551283;256;24229;-81
2022/03/11 06:14:41;;;;;;;29.87;14.47;;;-4.70;99.90;-5.90;102360;;;;551187;256;24152;-80
2022/03/11 06:17:09;;;;;;;28.50;13.47;;;-4.60;99.90;-5.70;102364;;;;551158;256;24194;-81
2022/03/11 06:19:37;;;;;;;33.00;13.60;;;-4.50;99.90;-5.30;102373;;;;549915;261;24191;-80
2022/03/11 06:22:05;;;;;;;38.90;14.60;;;-4.10;99.90;-3.50;102389;;;;547590;258;24105;-80
2022/03/11 06:24:33;;;;;;;28.83;14.43;;;-2.80;99.90;-0.40;102411;;;;551109;256;25193;-80
2022/03/11 06:27:01;;;;;;;21.00;8.30;;;-0.40;99.90;2.10;102419;;;;551093;256;24132;-79
2022/03/11 06:29:28;;;;;;;19.07;8.40;;;2.10;99.90;4.30;102416;;;;559227;255;24197;-80
2022/03/11 06:31:56;;;;;;;18.73;9.00;;;4.40;95.80;6.10;102418;;;;560390;255;24155;-79
2022/03/11 06:34:24;;;;;;;32.20;10.33;;;6.40;86.80;7.90;102429;;;;560894;254;24150;-80
2022/03/11 06:36:52;;;;;;;15.30;9.17;;;8.20;73.00;9.50;102432;;;;560729;254;24232;-80
2022/03/11 06:39:20;;;;;;;17.13;9.23;;;9.70;64.60;11.10;102428;;;;560390;256;24215;-79
2022/03/11 06:41:48;;;;;;;21.73;10.30;;;11.30;56.10;11.60;102415;;;;560159;255;24117;-81
2022/03/11 06:44:19;;;;;;;25.77;11.10;;;12.20;53.50;12.20;102426;;;;551501;256;24165;-79
2022/03/11 06:46:47;;;;;;;24.37;10.73;;;12.90;50.90;13.30;102432;;;;551491;256;24150;-81
2022/03/11 06:49:15;;;;;;;20.57;10.40;;;13.80;48.10;14.20;102433;;;;551982;256;24202;-80
2022/03/11 06:51:43;;;;;;;19.33;9.23;;;14.70;45.80;14.70;102428;;;;551521;256;24189;-79
2022/03/11 06:54:10;;;;;;;13.53;9.63;;;15.40;44.00;15.00;102438;;;;559293;255;24173;-79
2022/03/11 06:56:38;;;;;;;14.07;8.70;;;15.80;42.70;15.70;102448;;;;559551;255;24138;-82
2022/03/11 06:59:06;;;;;;;15.60;8.97;;;16.30;41.30;16.00;102447;;;;559139;255;24150;-82
2022/03/11 07:01:34;;;;;;;13.57;8.43;;;16.70;40.30;16.40;102447;;;;559179;255;24161;-79
2022/03/11 07:04:02;;;;;;;19.10;9.13;;;17.10;39.60;16.90;102451;;;;559413;256;24162;-78
2022/03/11 07:06:30;;;;;;;13.93;9.23;;;17.70;38.30;17.70;102454;;;;559125;254;24181;-79
2022/03/11 07:08:59;;;;;;;15.57;8.60;;;18.60;37.20;18.00;102457;;;;558678;256;24159;-79
2022/03/11 07:11:27;;;;;;;15.27;9.17;;;18.50;37.10;18.40;102455;;;;558942;255;24229;-80
2022/03/11 07:13:55;;;;;;;15.17;8.97;;;19.00;36.50;19.10;102453;;;;558925;256;24216;-80
2022/03/11 07:16:23;;;;;;;22.97;10.07;;;19.90;34.80;19.20;102449;;;;558989;256;24140;-80
2022/03/11 07:18:51;;;;;;;16.00;9.53;;;19.80;34.70;19.30;102452;;;;550830;256;24140;-79
2022/03/11 07:21:19;;;;;;;20.10;8.83;;;20.10;34.50;19.50;102450;;;;558970;255;24141;-80
2022/03/11 07:23:54;;;;;;;15.00;9.97;;;20.50;34.10;19.90;102446;;;;558954;256;24134;-80
2022/03/11 07:26:16;;;;;;;18.20;10.07;;;20.50;34.10;20.60;102463;;;;558108;256;24147;-78
2022/03/11 07:28:44;;;;;;;13.80;9.60;;;21.10;33.20;20.90;102459;;;;550686;256;24132;-81
2022/03/11 07:31:12;;;;;;;17.07;9.63;;;21.50;32.40;21.10;102461;;;;558947;255;24223;-79
2022/03/11 07:33:40;;;;;;;17.23;9.73;;;21.80;32.30;21.70;102458;;;;559007;255;24206;-81
2022/03/11 07:36:07;;;;;;;16.07;9.00;;;22.20;31.90;22.20;102464;;;;558916;256;24154;-81
2022/03/11 07:38:35;;;;;;;15.23;9.63;;;22.70;31.10;22.20;102462;;;;558948;255;24151;-80
2022/03/11 07:41:07;;;;;;;13.00;9.80;;;23.00;30.50;22.40;102461;;;;559009;255;24139;-81
2022/03/11 07:43:31;;;;;;;14.33;9.67;;;23.10;30.10;22.40;102459;;;;559641;255;24252;-82
2022/03/11 07:45:59;;;;;;;15.40;9.17;;;23.30;30.10;22.50;102457;;;;560087;254;24154;-81
2022/03/11 07:48:27;;;;;;;20.40;9.70;;;23.30;29.90;22.60;102454;;;;559741;256;24168;-80
2022/03/11 07:50:55;;;;;;;13.13;9.50;;;23.50;29.40;23.10;102452;;;;559471;253;24151;-80
2022/03/11 07:53:23;;;;;;;19.47;9.27;;;23.80;29.60;23.40;102451;;;;559546;254;24143;-80
2022/03/11 07:55:51;;;;;;;25.37;10.13;;;24.10;29.10;23.70;102456;;;;559450;256;24165;-82
2022/03/11 07:58:21;;;;;;;22.67;10.65;;;24.40;28.90;23.60;102459;;;;554753;254;35753;-81
2022/03/11 08:00:47;;;;;;;17.63;9.33;;;24.50;28.40;23.70;102461;;;;551001;256;24179;-80
2022/03/11 08:03:17;;;;;;;26.60;8.80;;;24.60;28.40;24.10;102466;;;;559104;256;24130;-79
2022/03/11 08:05:42;;;;;;;18.70;9.20;;;24.90;28.00;23.90;102472;;;;548804;256;23248;-80
2022/03/11 08:08:10;;;;;;;19.70;8.63;;;24.80;27.90;23.60;102469;;;;558847;256;24161;-80
2022/03/11 08:10:39;;;;;;;16.80;8.93;;;24.70;27.90;24.40;102472;;;;547980;256;23157;-79
2022/03/11 08:13:09;;;;;;;10.83;8.00;;;25.10;28.10;24.60;102477;;;;550689;256;24125;-79
2022/03/11 08:15:37;;;;;;;12.77;8.50;;;25.50;27.80;25.00;102467;;;;550763;256;23176;-80
2022/03/11 08:18:11;;;;;;;11.07;7.67;;;25.90;27.50;25.30;102469;;;;559095;256;24151;-80
2022/03/11 08:20:39;;;;;;;13.13;8.07;;;26.40;27.40;25.10;102470;;;;548167;256;24160;-79
2022/03/11 08:23:08;;;;;;;12.37;6.53;;;26.20;26.90;24.80;102468;;;;558925;254;24163;-82
2022/03/11 08:25:38;;;;;;;12.87;7.53;;;26.00;26.50;24.90;102472;;;;558994;255;24131;-79
2022/03/11 08:28:10;;;;;;;10.93;7.37;;;26.00;27.10;25.00;102471;;;;550698;256;23176;-79
2022/03/11 08:30:34;;;;;;;14.73;9.03;;;26.10;26.90;25.50;102478;;;;550298;254;24179;-80
2022/03/11 08:33:04;;;;;;;15.93;8.73;;;26.40;26.50;25.40;102469;;;;555126;256;23177;-81
2022/03/11 08:35:29;;;;;;;13.17;7.53;;;26.40;26.90;25.80;102473;;;;555811;255;23192;-83
2022/03/11 08:37:57;;;;;;;17.90;7.53;;;26.80;26.70;25.60;102460;;;;558569;256;24156;-80
2022/03/11 08:40:28;;;;;;;10.47;7.33;;;26.80;26.00;25.40;102467;;;;558532;256;24179;-79
2022/03/11 08:42:53;;;;;;;14.77;7.93;;;26.80;25.70;24.70;102475;;;;558248;256;24174;-79
2022/03/11 08:45:21;;;;;;;14.90;7.90;;;26.20;25.80;25.10;102475;;;;550492;256;24148;-80
2022/03/11 08:47:52;;;;;;;15.07;8.50;;;26.30;25.80;25.50;102469;;;;553550;254;35744;-78
2022/03/11 08:50:17;;;;;;;13.33;8.10;;;26.50;25.90;25.50;102477;;;;550229;256;24171;-79
2022/03/11 08:52:45;;;;;;;12.23;7.43;;;26.70;25.60;25.00;102476;;;;555688;256;24142;-79
2022/03/11 08:55:16;;;;;;;8.70;7.37;;;26.60;25.40;24.90;102465;;;;548523;256;23220;-80
2022/03/11 08:57:41;;;;;;;14.43;7.23;;;26.30;25.90;24.90;102474;;;;551373;256;23165;-78
2022/03/11 09:00:09;;;;;;;18.17;7.87;;;26.40;25.30;24.80;102470;;;;548445;256;23160;-78
2022/03/11 09:02:37;;;;;;;16.03;6.77;;;26.40;25.30;24.80;102470;;;;551200;256;24187;-80
2022/03/11 09:05:05;;;;;;;12.07;7.77;;;26.20;25.50;25.00;102475;;;;558986;254;23185;-78
2022/03/11 09:07:33;;;;;;;8.87;6.77;;;26.40;25.20;25.10;102479;;;;558954;253;23208;-79
2022/03/11 09:10:01;;;;;;;10.57;6.83;;;26.50;25.20;25.70;102472;;;;559047;256;24135;-79
2022/03/11 09:12:28;;;;;;;16.23;7.23;;;26.90;25.20;25.70;102471;;;;555989;256;24152;-79
2022/03/11 09:14:57;;;;;;;11.60;6.47;;;27.20;24.60;25.30;102473;;;;558793;256;23169;-81
2022/03/11 09:17:25;;;;;;;15.83;6.70;;;26.80;24.70;25.20;102471;;;;558793;256;24187;-80
2022/03/11 09:19:54;;;;;;;16.77;5.90;;;26.70;24.90;24.40;102475;;;;559149;256;23149;-79
2022/03/11 09:22:20;;;;;;;11.23;6.37;;;26.30;24.60;24.50;102471;;;;559020;256;24128;-77
2022/03/11 09:24:52;;;;;;;10.13;6.47;;;26.20;24.80;24.80;102472;;;;559131;255;23181;-78
2022/03/11 09:27:18;;;;;;;7.67;6.20;;;26.40;25.00;25.00;102477;;;;558876;256;23189;-78
2022/03/11 09:29:48;;;;;;;11.80;7.07;;;26.70;25.10;25.20;102478;;;;558622;256;24214;-77
2022/03/11 09:32:13;;;;;;;7.37;6.33;;;26.60;25.50;25.70;102482;;;;558458;256;23183;-80
2022/03/11 09:34:43;;;;;;;17.47;6.97;;;27.10;25.60;25.40;102483;;;;558605;256;24155;-80
2022/03/11 09:37:11;;;;;;;9.20;5.33;;;27.10;24.70;24.60;102470;;;;558724;256;24162;-78
2022/03/11 09:39:39;;;;;;;11.13;6.70;;;26.50;24.70;22.60;102474;;;;558616;255;23148;-77
2022/03/11 09:42:07;;;;;;;12.83;7.50;;;25.20;24.90;20.40;102475;;;;558753;256;24188;-78
2022/03/11 09:44:35;;;;;;;12.03;6.47;;;23.30;25.80;19.00;102470;;;;555162;256;23195;-79
2022/03/11 09:47:06;;;;;;;15.67;6.47;;;21.50;27.10;17.80;102463;;;;555043;256;24186;-78
2022/03/11 09:49:35;;;;;;;11.03;5.63;;;18.90;28.30;16.80;102454;;;;558640;253;24204;-79
2022/03/11 09:52:00;;;;;;;8.03;5.13;;;18.00;29.40;16.10;102448;;;;558561;256;24143;-77
2022/03/11 09:54:31;;;;;;;12.67;5.20;;;17.90;29.10;15.30;102447;;;;550937;256;24162;-77
2022/03/11 09:56:56;;;;;;;14.43;5.80;;;17.30;29.30;15.70;102445;;;;550643;256;24155;-78
2022/03/11 09:59:24;;;;;;;11.40;6.23;;;17.30;30.10;16.20;102452;;;;548496;256;24157;-82
2022/03/11 10:01:55;;;;;;;6.93;4.40;;;17.70;29.90;16.60;102445;;;;550731;256;24157;-80
2022/03/11 10:04:21;;;;;;;9.67;5.60;;;18.10;29.60;17.00;102447;;;;558597;253;23181;-79
2022/03/11 10:06:48;;;;;;;8.90;5.47;;;18.50;29.40;17.30;102451;;;;555804;256;24195;-79
2022/03/11 10:09:19;;;;;;;11.37;6.10;;;19.00;28.90;17.30;102456;;;;551586;256;24200;-76
2022/03/11 10:12:00;;;;;;;15.13;6.60;;;19.10;28.80;16.70;102444;;;;559357;255;24139;-78
2022/03/11 10:14:35;;;;;;;33.03;7.67;;;18.90;29.00;16.10;102452;;;;551203;256;24156;-78
2022/03/11 10:17:03;;;;;;;18.13;5.83;;;18.50;29.30;16.80;102449;;;;559719;255;24166;-81
2022/03/11 10:19:31;;;;;;;12.60;6.20;;;18.70;29.70;16.60;102450;;;;551390;256;24155;-82
2022/03/11 10:22:02;;;;;;;10.73;5.40;;;18.70;29.20;16.30;102444;;;;551679;256;24225;-81
2022/03/11 10:24:27;;;;;;;8.50;5.40;;;18.50;29.70;16.20;102452;;;;551568;256;24190;-81
2022/03/11 10:26:54;;;;;;;8.87;5.60;;;18.20;29.70;15.00;102435;;;;551443;256;24384;-81
2022/03/11 10:29:23;;;;;;;10.77;5.80;;;17.30;30.20;14.20;102437;;;;551676;256;24149;-81
2022/03/11 10:31:50;;;;;;;13.13;6.43;;;16.60;31.50;13.70;102434;;;;551239;256;24185;-81
2022/03/11 10:34:25;;;;;;;13.90;6.20;;;15.90;33.30;14.00;102421;;;;551707;256;24167;-80
2022/03/11 10:36:56;;;;;;;17.40;5.87;;;15.90;33.30;14.20;102414;;;;551313;256;24214;-82
2022/03/11 10:39:30;;;;;;;7.80;4.80;;;16.00;32.20;13.30;102416;;;;552178;256;24177;-78
2022/03/11 10:41:58;;;;;;;10.57;5.47;;;15.50;32.90;12.10;102417;;;;551410;256;24144;-79
2022/03/11 10:44:26;;;;;;;8.30;5.23;;;14.50;33.70;11.50;102405;;;;551537;256;24171;-83
2022/03/11 10:46:57;;;;;;;13.17;4.73;;;13.70;34.30;10.60;102409;;;;551893;256;24129;-82
2022/03/11 10:49:27;;;;;;;7.23;4.30;;;12.80;35.20;9.60;102396;;;;550263;256;24118;-79
2022/03/11 10:51:55;;;;;;;18.87;3.87;;;11.70;36.10;9.00;102391;;;;551921;256;24161;-78
2022/03/11 10:54:21;;;;;;;30.23;5.53;;;9.80;39.60;8.20;102399;;;;551887;256;24158;-79
2022/03/11 10:56:49;;;;;;;6.07;3.70;;;9.70;38.90;7.30;102393;;;;551908;256;24161;-81
2022/03/11 10:59:23;;;;;;;8.57;4.20;;;8.90;40.00;6.50;102387;;;;559813;255;24185;-82
2022/03/11 11:01:54;;;;;;;11.93;3.13;;;7.90;40.90;5.80;102385;;;;559864;254;24211;-80